sensor_id;sensor_type;location;lat;lon;timestamp;pressure;altitude;pressure_sealevel;temperature;humidity
33185;BME280;19550;42.872;25.494;2023-02-20T00:00:37;96543.78;;;10.62;86.33
33185;BME280;19550;42.872;25.494;2023-02-20T00:03:05;96548.28;;;10.49;86.50
33185;BME280;19550;42.872;25.494;2023-02-20T00:05:32;96543.72;;;10.31;88.15
33185;BME280;19550;42.872;25.494;2023-02-20T00:07:59;96546.50;;;10.31;87.82
33185;BME280;19550;42.872;25.494;2023-02-20T00:10:26;96551.06;;;10.49;85.72
33185;BME280;19550;42.872;25.494;2023-02-20T00:12:53;96553.09;;;10.66;85.17
33185;BME280;19550;42.872;25.494;2023-02-20T00:15:21;96556.06;;;10.69;85.00
33185;BME280;19550;42.872;25.494;2023-02-20T00:17:49;96556.28;;;10.82;83.63
33185;BME280;19550;42.872;25.494;2023-02-20T00:20:21;96557.56;;;10.75;84.73
33185;BME280;19550;42.872;25.494;2023-02-20T00:22:49;96562.28;;;10.75;84.93
33185;BME280;19550;42.872;25.494;2023-02-20T00:25:18;96565.44;;;10.82;84.10
33185;BME280;19550;42.872;25.494;2023-02-20T00:27:45;96549.78;;;10.86;83.86
33185;BME280;19550;42.872;25.494;2023-02-20T00:30:15;96546.03;;;10.82;83.96
33185;BME280;19550;42.872;25.494;2023-02-20T00:32:42;96548.00;;;10.59;85.71
33185;BME280;19550;42.872;25.494;2023-02-20T00:35:10;96534.09;;;10.51;85.67
33185;BME280;19550;42.872;25.494;2023-02-20T00:37:37;96544.19;;;10.47;86.50
33185;BME280;19550;42.872;25.494;2023-02-20T00:40:05;96542.38;;;10.42;86.39
33185;BME280;19550;42.872;25.494;2023-02-20T00:42:32;96543.50;;;10.41;86.29
33185;BME280;19550;42.872;25.494;2023-02-20T00:44:59;96544.00;;;10.21;87.29
33185;BME280;19550;42.872;25.494;2023-02-20T00:47:26;96549.25;;;10.22;87.49
33185;BME280;19550;42.872;25.494;2023-02-20T00:49:53;96544.41;;;10.14;87.08
33185;BME280;19550;42.872;25.494;2023-02-20T00:52:21;96549.88;;;10.06;88.27
33185;BME280;19550;42.872;25.494;2023-02-20T00:54:48;96543.56;;;9.91;89.36
33185;BME280;19550;42.872;25.494;2023-02-20T00:57:15;96533.63;;;10.13;87.47
33185;BME280;19550;42.872;25.494;2023-02-20T00:59:42;96524.91;;;10.19;86.58
33185;BME280;19550;42.872;25.494;2023-02-20T01:02:09;96537.72;;;10.29;86.42
33185;BME280;19550;42.872;25.494;2023-02-20T01:04:36;96540.97;;;10.31;86.72
33185;BME280;19550;42.872;25.494;2023-02-20T01:07:02;96545.78;;;10.17;87.35
33185;BME280;19550;42.872;25.494;2023-02-20T01:09:31;96550.22;;;10.26;86.62
33185;BME280;19550;42.872;25.494;2023-02-20T01:11:57;96553.66;;;10.23;87.26
33185;BME280;19550;42.872;25.494;2023-02-20T01:14:24;96557.56;;;10.09;87.62
33185;BME280;19550;42.872;25.494;2023-02-20T01:16:52;96552.91;;;9.95;88.39
33185;BME280;19550;42.872;25.494;2023-02-20T01:19:20;96554.88;;;9.81;89.86
33185;BME280;19550;42.872;25.494;2023-02-20T01:21:48;96558.44;;;9.46;91.96
33185;BME280;19550;42.872;25.494;2023-02-20T01:24:15;96551.19;;;9.50;92.07
33185;BME280;19550;42.872;25.494;2023-02-20T01:26:45;96537.22;;;9.55;90.99
33185;BME280;19550;42.872;25.494;2023-02-20T01:29:13;96537.75;;;9.79;89.75
33185;BME280;19550;42.872;25.494;2023-02-20T01:31:46;96543.03;;;9.67;90.36
33185;BME280;19550;42.872;25.494;2023-02-20T01:34:13;96529.03;;;9.86;89.44
33185;BME280;19550;42.872;25.494;2023-02-20T01:36:44;96533.44;;;9.87;88.92
33185;BME280;19550;42.872;25.494;2023-02-20T01:39:11;96531.56;;;9.96;88.75
33185;BME280;19550;42.872;25.494;2023-02-20T01:41:38;96526.47;;;9.89;89.29
33185;BME280;19550;42.872;25.494;2023-02-20T01:44:17;96527.34;;;9.98;88.46
33185;BME280;19550;42.872;25.494;2023-02-20T01:46:50;96530.75;;;9.95;88.67
33185;BME280;19550;42.872;25.494;2023-02-20T01:49:25;96535.16;;;9.96;88.49
33185;BME280;19550;42.872;25.494;2023-02-20T01:51:56;96523.66;;;10.03;88.20
33185;BME280;19550;42.872;25.494;2023-02-20T01:54:26;96512.75;;;10.07;88.29
33185;BME280;19550;42.872;25.494;2023-02-20T01:56:56;96515.94;;;10.00;88.78
33185;BME280;19550;42.872;25.494;2023-02-20T01:59:26;96509.06;;;9.97;88.72
33185;BME280;19550;42.872;25.494;2023-02-20T02:01:55;96514.00;;;10.01;88.77
33185;BME280;19550;42.872;25.494;2023-02-20T02:04:22;96508.34;;;10.06;88.31
33185;BME280;19550;42.872;25.494;2023-02-20T02:06:51;96511.41;;;10.04;88.26
33185;BME280;19550;42.872;25.494;2023-02-20T02:09:25;96520.16;;;9.97;89.02
33185;BME280;19550;42.872;25.494;2023-02-20T02:11:53;96508.72;;;9.90;89.31
33185;BME280;19550;42.872;25.494;2023-02-20T02:14:20;96523.63;;;9.81;89.62
33185;BME280;19550;42.872;25.494;2023-02-20T02:16:58;96528.72;;;9.87;88.78
33185;BME280;19550;42.872;25.494;2023-02-20T02:19:49;96531.50;;;9.87;89.00
33185;BME280;19550;42.872;25.494;2023-02-20T02:22:56;96526.78;;;9.88;88.53
33185;BME280;19550;42.872;25.494;2023-02-20T02:25:35;96514.25;;;9.90;88.07
33185;BME280;19550;42.872;25.494;2023-02-20T02:28:38;96513.44;;;9.90;87.84
33185;BME280;19550;42.872;25.494;2023-02-20T02:37:23;96507.31;;;9.79;88.38
33185;BME280;19550;42.872;25.494;2023-02-20T02:39:58;96496.28;;;9.66;89.12
33185;BME280;19550;42.872;25.494;2023-02-20T02:42:32;96507.78;;;9.59;89.19
33185;BME280;19550;42.872;25.494;2023-02-20T02:45:09;96505.03;;;9.59;89.70
33185;BME280;19550;42.872;25.494;2023-02-20T02:47:42;96506.16;;;9.58;89.36
33185;BME280;19550;42.872;25.494;2023-02-20T02:50:15;96505.44;;;9.52;89.40
33185;BME280;19550;42.872;25.494;2023-02-20T02:52:44;96523.91;;;9.57;89.43
33185;BME280;19550;42.872;25.494;2023-02-20T02:55:17;96523.13;;;9.65;89.57
33185;BME280;19550;42.872;25.494;2023-02-20T02:57:44;96517.44;;;9.62;89.36
33185;BME280;19550;42.872;25.494;2023-02-20T03:00:15;96520.28;;;9.70;88.66
33185;BME280;19550;42.872;25.494;2023-02-20T03:02:48;96525.81;;;9.70;89.22
33185;BME280;19550;42.872;25.494;2023-02-20T03:05:19;96515.22;;;9.72;88.76
33185;BME280;19550;42.872;25.494;2023-02-20T03:07:52;96511.47;;;9.68;88.80
33185;BME280;19550;42.872;25.494;2023-02-20T03:10:22;96511.84;;;9.75;88.73
33185;BME280;19550;42.872;25.494;2023-02-20T03:12:58;96502.28;;;9.81;87.64
33185;BME280;19550;42.872;25.494;2023-02-20T03:15:30;96507.63;;;9.78;87.53
33185;BME280;19550;42.872;25.494;2023-02-20T03:18:07;96512.50;;;9.58;88.25
33185;BME280;19550;42.872;25.494;2023-02-20T03:20:37;96511.69;;;9.58;88.64
33185;BME280;19550;42.872;25.494;2023-02-20T03:23:07;96506.97;;;9.58;88.01
33185;BME280;19550;42.872;25.494;2023-02-20T03:25:37;96521.75;;;9.54;88.48
33185;BME280;19550;42.872;25.494;2023-02-20T03:28:09;96521.13;;;9.57;88.06
33185;BME280;19550;42.872;25.494;2023-02-20T03:30:42;96540.00;;;9.55;88.14
33185;BME280;19550;42.872;25.494;2023-02-20T03:33:13;96534.66;;;9.45;88.31
33185;BME280;19550;42.872;25.494;2023-02-20T03:36:01;96534.91;;;9.35;88.35
33185;BME280;19550;42.872;25.494;2023-02-20T03:38:51;96534.25;;;9.38;88.29
33185;BME280;19550;42.872;25.494;2023-02-20T03:41:36;96542.50;;;9.29;88.40
33185;BME280;19550;42.872;25.494;2023-02-20T03:44:23;96547.81;;;9.26;88.31
33185;BME280;19550;42.872;25.494;2023-02-20T03:46:51;96545.84;;;9.26;88.45
33185;BME280;19550;42.872;25.494;2023-02-20T03:49:20;96541.66;;;9.29;88.24
33185;BME280;19550;42.872;25.494;2023-02-20T03:51:48;96555.59;;;9.24;89.16
33185;BME280;19550;42.872;25.494;2023-02-20T03:54:17;96560.00;;;9.25;88.79
33185;BME280;19550;42.872;25.494;2023-02-20T03:56:46;96562.16;;;9.14;88.90
33185;BME280;19550;42.872;25.494;2023-02-20T03:59:19;96582.44;;;9.09;89.85
33185;BME280;19550;42.872;25.494;2023-02-20T04:01:51;96574.16;;;9.09;89.40
33185;BME280;19550;42.872;25.494;2023-02-20T04:04:24;96566.88;;;9.13;89.40
33185;BME280;19550;42.872;25.494;2023-02-20T04:06:52;96575.38;;;9.03;89.92
33185;BME280;19550;42.872;25.494;2023-02-20T04:09:23;96567.50;;;8.97;90.50
33185;BME280;19550;42.872;25.494;2023-02-20T04:11:54;96552.75;;;9.01;90.12
33185;BME280;19550;42.872;25.494;2023-02-20T04:14:25;96568.50;;;9.01;89.42
33185;BME280;19550;42.872;25.494;2023-02-20T04:16:58;96572.63;;;9.03;89.29
33185;BME280;19550;42.872;25.494;2023-02-20T04:19:27;96555.69;;;9.05;89.16
33185;BME280;19550;42.872;25.494;2023-02-20T04:21:55;96569.03;;;9.03;89.00
33185;BME280;19550;42.872;25.494;2023-02-20T04:24:29;96569.72;;;8.95;89.04
33185;BME280;19550;42.872;25.494;2023-02-20T04:26:57;96550.25;;;8.86;89.93
33185;BME280;19550;42.872;25.494;2023-02-20T04:29:24;96556.63;;;8.87;89.05
33185;BME280;19550;42.872;25.494;2023-02-20T04:31:51;96553.31;;;8.85;88.90
33185;BME280;19550;42.872;25.494;2023-02-20T04:34:18;96551.72;;;8.84;88.97
33185;BME280;19550;42.872;25.494;2023-02-20T04:36:45;96572.47;;;8.81;89.12
33185;BME280;19550;42.872;25.494;2023-02-20T04:39:12;96587.53;;;8.75;89.89
33185;BME280;19550;42.872;25.494;2023-02-20T04:41:40;96606.03;;;8.74;89.59
33185;BME280;19550;42.872;25.494;2023-02-20T04:44:07;96604.41;;;8.73;89.31
33185;BME280;19550;42.872;25.494;2023-02-20T04:47:04;96607.25;;;8.68;89.72
33185;BME280;19550;42.872;25.494;2023-02-20T04:49:31;96606.03;;;8.74;89.27
33185;BME280;19550;42.872;25.494;2023-02-20T04:51:59;96613.22;;;8.75;89.47
33185;BME280;19550;42.872;25.494;2023-02-20T04:54:26;96621.66;;;8.65;89.49
33185;BME280;19550;42.872;25.494;2023-02-20T04:56:54;96633.63;;;8.61;89.79
33185;BME280;19550;42.872;25.494;2023-02-20T04:59:21;96638.97;;;8.57;90.29
33185;BME280;19550;42.872;25.494;2023-02-20T05:01:48;96633.44;;;8.57;89.79
33185;BME280;19550;42.872;25.494;2023-02-20T05:04:17;96647.63;;;8.51;90.34
33185;BME280;19550;42.872;25.494;2023-02-20T05:06:47;96659.66;;;8.41;91.10
33185;BME280;19550;42.872;25.494;2023-02-20T05:09:14;96665.09;;;8.46;90.62
33185;BME280;19550;42.872;25.494;2023-02-20T05:11:41;96669.56;;;8.61;89.22
33185;BME280;19550;42.872;25.494;2023-02-20T05:14:10;96661.19;;;8.66;89.10
33185;BME280;19550;42.872;25.494;2023-02-20T05:16:37;96684.53;;;8.73;88.01
33185;BME280;19550;42.872;25.494;2023-02-20T05:19:04;96693.84;;;8.77;87.79
33185;BME280;19550;42.872;25.494;2023-02-20T05:21:31;96701.78;;;8.84;87.95
33185;BME280;19550;42.872;25.494;2023-02-20T05:24:15;96693.84;;;8.77;88.33
33185;BME280;19550;42.872;25.494;2023-02-20T05:26:42;96699.72;;;8.76;87.98
33185;BME280;19550;42.872;25.494;2023-02-20T05:29:11;96700.97;;;8.84;87.07
33185;BME280;19550;42.872;25.494;2023-02-20T05:31:38;96706.25;;;8.80;86.83
33185;BME280;19550;42.872;25.494;2023-02-20T05:34:05;96715.66;;;8.79;86.38
33185;BME280;19550;42.872;25.494;2023-02-20T05:36:32;96722.03;;;8.80;86.49
33185;BME280;19550;42.872;25.494;2023-02-20T05:38:59;96729.28;;;8.75;86.13
33185;BME280;19550;42.872;25.494;2023-02-20T05:41:26;96742.81;;;8.77;86.82
33185;BME280;19550;42.872;25.494;2023-02-20T05:43:53;96756.09;;;8.75;86.12
33185;BME280;19550;42.872;25.494;2023-02-20T05:46:23;96760.06;;;8.69;86.38
33185;BME280;19550;42.872;25.494;2023-02-20T05:48:51;96780.16;;;8.74;86.57
33185;BME280;19550;42.872;25.494;2023-02-20T05:51:19;96762.53;;;8.70;86.21
33185;BME280;19550;42.872;25.494;2023-02-20T05:53:46;96767.69;;;8.77;84.51
33185;BME280;19550;42.872;25.494;2023-02-20T05:56:13;96774.06;;;8.91;83.83
33185;BME280;19550;42.872;25.494;2023-02-20T05:58:41;96780.03;;;8.98;84.51
33185;BME280;19550;42.872;25.494;2023-02-20T06:01:08;96787.13;;;9.04;83.65
33185;BME280;19550;42.872;25.494;2023-02-20T06:03:36;96783.34;;;9.00;84.11
33185;BME280;19550;42.872;25.494;2023-02-20T06:06:03;96801.34;;;8.98;84.12
33185;BME280;19550;42.872;25.494;2023-02-20T06:08:30;96805.47;;;9.00;84.16
33185;BME280;19550;42.872;25.494;2023-02-20T06:10:57;96817.13;;;8.97;84.78
33185;BME280;19550;42.872;25.494;2023-02-20T06:13:24;96813.31;;;8.93;84.26
33185;BME280;19550;42.872;25.494;2023-02-20T06:15:51;96804.47;;;8.91;84.45
33185;BME280;19550;42.872;25.494;2023-02-20T06:18:18;96817.06;;;8.84;84.85
33185;BME280;19550;42.872;25.494;2023-02-20T06:20:46;96817.44;;;8.77;85.21
33185;BME280;19550;42.872;25.494;2023-02-20T06:23:13;96822.44;;;8.75;85.30
33185;BME280;19550;42.872;25.494;2023-02-20T06:25:40;96824.66;;;8.73;83.73
33185;BME280;19550;42.872;25.494;2023-02-20T06:28:06;96812.84;;;8.86;83.44
33185;BME280;19550;42.872;25.494;2023-02-20T06:30:33;96820.47;;;8.94;82.50
33185;BME280;19550;42.872;25.494;2023-02-20T06:33:00;96829.13;;;9.06;81.91
33185;BME280;19550;42.872;25.494;2023-02-20T06:35:27;96825.41;;;9.16;80.02
33185;BME280;19550;42.872;25.494;2023-02-20T06:37:55;96831.88;;;9.25;79.16
33185;BME280;19550;42.872;25.494;2023-02-20T06:40:22;96816.72;;;9.23;78.50
33185;BME280;19550;42.872;25.494;2023-02-20T06:42:49;96828.72;;;9.32;78.22
33185;BME280;19550;42.872;25.494;2023-02-20T06:45:16;96829.63;;;9.27;77.98
33185;BME280;19550;42.872;25.494;2023-02-20T06:47:42;96831.19;;;9.33;77.93
33185;BME280;19550;42.872;25.494;2023-02-20T06:50:09;96811.97;;;9.42;77.99
33185;BME280;19550;42.872;25.494;2023-02-20T06:52:36;96823.66;;;9.52;77.76
33185;BME280;19550;42.872;25.494;2023-02-20T06:55:05;96799.72;;;9.62;76.96
33185;BME280;19550;42.872;25.494;2023-02-20T06:57:32;96812.31;;;9.68;77.39
33185;BME280;19550;42.872;25.494;2023-02-20T06:59:59;96824.41;;;9.72;77.78
33185;BME280;19550;42.872;25.494;2023-02-20T07:02:26;96823.88;;;9.56;77.64
33185;BME280;19550;42.872;25.494;2023-02-20T07:04:52;96821.28;;;9.46;78.81
33185;BME280;19550;42.872;25.494;2023-02-20T07:07:19;96823.38;;;9.54;77.89
33185;BME280;19550;42.872;25.494;2023-02-20T07:09:46;96824.47;;;9.53;77.63
33185;BME280;19550;42.872;25.494;2023-02-20T07:12:14;96824.69;;;9.43;77.65
33185;BME280;19550;42.872;25.494;2023-02-20T07:14:41;96834.09;;;9.42;77.51
33185;BME280;19550;42.872;25.494;2023-02-20T07:17:08;96843.66;;;9.49;77.00
33185;BME280;19550;42.872;25.494;2023-02-20T07:19:35;96845.03;;;9.79;78.06
33185;BME280;19550;42.872;25.494;2023-02-20T07:22:02;96839.09;;;9.72;74.14
33185;BME280;19550;42.872;25.494;2023-02-20T07:24:28;96859.13;;;9.50;74.62
33185;BME280;19550;42.872;25.494;2023-02-20T07:26:56;96856.66;;;9.49;74.61
33185;BME280;19550;42.872;25.494;2023-02-20T07:29:24;96861.75;;;9.42;74.74
33185;BME280;19550;42.872;25.494;2023-02-20T07:31:51;96874.59;;;9.51;73.45
33185;BME280;19550;42.872;25.494;2023-02-20T07:34:17;96852.28;;;9.62;73.29
33185;BME280;19550;42.872;25.494;2023-02-20T07:36:44;96879.19;;;9.75;72.04
33185;BME280;19550;42.872;25.494;2023-02-20T07:39:12;96870.00;;;9.93;71.89
33185;BME280;19550;42.872;25.494;2023-02-20T07:41:39;96874.56;;;9.84;70.12
33185;BME280;19550;42.872;25.494;2023-02-20T07:44:06;96872.34;;;9.86;70.48
33185;BME280;19550;42.872;25.494;2023-02-20T07:46:34;96882.44;;;10.09;69.76
33185;BME280;19550;42.872;25.494;2023-02-20T07:49:02;96883.22;;;10.42;68.59
33185;BME280;19550;42.872;25.494;2023-02-20T07:51:29;96888.22;;;10.26;67.12
33185;BME280;19550;42.872;25.494;2023-02-20T07:53:57;96877.16;;;10.40;66.72
33185;BME280;19550;42.872;25.494;2023-02-20T07:56:24;96876.50;;;10.70;66.20
33185;BME280;19550;42.872;25.494;2023-02-20T07:58:51;96879.09;;;10.67;63.98
33185;BME280;19550;42.872;25.494;2023-02-20T08:01:19;96880.91;;;10.85;63.36
33185;BME280;19550;42.872;25.494;2023-02-20T08:03:47;96874.84;;;10.97;62.82
33185;BME280;19550;42.872;25.494;2023-02-20T08:06:17;96867.56;;;10.87;61.63
33185;BME280;19550;42.872;25.494;2023-02-20T08:08:46;96860.25;;;10.91;60.59
33185;BME280;19550;42.872;25.494;2023-02-20T08:11:14;96851.78;;;10.74;61.51
33185;BME280;19550;42.872;25.494;2023-02-20T08:13:41;96866.84;;;10.82;62.12
33185;BME280;19550;42.872;25.494;2023-02-20T08:16:09;96838.13;;;10.64;61.55
33185;BME280;19550;42.872;25.494;2023-02-20T08:18:36;96839.56;;;10.75;62.37
33185;BME280;19550;42.872;25.494;2023-02-20T08:21:04;96847.31;;;10.87;61.95
33185;BME280;19550;42.872;25.494;2023-02-20T08:23:31;96858.63;;;10.90;61.43
33185;BME280;19550;42.872;25.494;2023-02-20T08:25:58;96845.25;;;10.92;61.05
33185;BME280;19550;42.872;25.494;2023-02-20T08:28:25;96856.28;;;11.20;59.99
33185;BME280;19550;42.872;25.494;2023-02-20T08:30:52;96840.56;;;11.15;60.59
33185;BME280;19550;42.872;25.494;2023-02-20T08:33:19;96845.72;;;11.08;61.01
33185;BME280;19550;42.872;25.494;2023-02-20T08:35:46;96847.41;;;10.95;61.40
33185;BME280;19550;42.872;25.494;2023-02-20T08:38:25;96848.44;;;10.99;60.87
33185;BME280;19550;42.872;25.494;2023-02-20T08:40:52;96848.56;;;10.81;61.82
33185;BME280;19550;42.872;25.494;2023-02-20T08:43:19;96847.59;;;10.99;62.15
33185;BME280;19550;42.872;25.494;2023-02-20T08:45:47;96847.88;;;11.11;61.45
33185;BME280;19550;42.872;25.494;2023-02-20T08:48:14;96834.16;;;11.28;60.10
33185;BME280;19550;42.872;25.494;2023-02-20T08:50:40;96841.41;;;11.38;58.37
33185;BME280;19550;42.872;25.494;2023-02-20T08:53:07;96836.75;;;11.47;59.16
33185;BME280;19550;42.872;25.494;2023-02-20T08:55:36;96841.47;;;11.46;58.01
33185;BME280;19550;42.872;25.494;2023-02-20T08:58:02;96840.19;;;11.52;55.94
33185;BME280;19550;42.872;25.494;2023-02-20T09:00:29;96827.16;;;11.53;55.58
33185;BME280;19550;42.872;25.494;2023-02-20T09:02:56;96825.75;;;11.86;56.19
33185;BME280;19550;42.872;25.494;2023-02-20T09:05:24;96837.81;;;11.60;53.68
33185;BME280;19550;42.872;25.494;2023-02-20T09:07:51;96841.47;;;11.46;52.49
33185;BME280;19550;42.872;25.494;2023-02-20T09:10:19;96845.38;;;11.45;53.24
33185;BME280;19550;42.872;25.494;2023-02-20T09:12:47;96854.53;;;11.46;53.47
33185;BME280;19550;42.872;25.494;2023-02-20T09:15:14;96853.31;;;11.16;52.67
33185;BME280;19550;42.872;25.494;2023-02-20T09:17:43;96875.97;;;11.32;52.77
33185;BME280;19550;42.872;25.494;2023-02-20T09:20:11;96881.97;;;11.11;53.56
33185;BME280;19550;42.872;25.494;2023-02-20T09:22:38;96867.03;;;10.99;52.30
33185;BME280;19550;42.872;25.494;2023-02-20T09:25:05;96861.81;;;10.84;53.18
33185;BME280;19550;42.872;25.494;2023-02-20T09:27:32;96866.75;;;10.73;52.36
33185;BME280;19550;42.872;25.494;2023-02-20T09:30:00;96878.50;;;11.06;53.50
33185;BME280;19550;42.872;25.494;2023-02-20T09:32:28;96878.81;;;11.40;53.29
33185;BME280;19550;42.872;25.494;2023-02-20T09:34:56;96861.94;;;11.37;52.52
33185;BME280;19550;42.872;25.494;2023-02-20T09:37:23;96882.38;;;11.54;52.50
33185;BME280;19550;42.872;25.494;2023-02-20T09:39:50;96873.84;;;11.29;53.68
33185;BME280;19550;42.872;25.494;2023-02-20T09:42:25;96883.41;;;11.45;53.51
33185;BME280;19550;42.872;25.494;2023-02-20T09:45:04;96883.03;;;11.38;52.13
33185;BME280;19550;42.872;25.494;2023-02-20T09:47:50;96891.78;;;11.31;50.73
33185;BME280;19550;42.872;25.494;2023-02-20T09:50:25;96899.38;;;11.39;50.61
33185;BME280;19550;42.872;25.494;2023-02-20T09:52:59;96884.75;;;11.47;50.19
33185;BME280;19550;42.872;25.494;2023-02-20T09:55:35;96898.38;;;11.57;50.55
33185;BME280;19550;42.872;25.494;2023-02-20T09:58:05;96892.34;;;12.00;50.00
33185;BME280;19550;42.872;25.494;2023-02-20T10:00:35;96893.09;;;11.92;49.24
33185;BME280;19550;42.872;25.494;2023-02-20T10:03:16;96885.75;;;12.18;48.46
33185;BME280;19550;42.872;25.494;2023-02-20T10:05:45;96887.91;;;11.99;49.12
33185;BME280;19550;42.872;25.494;2023-02-20T10:08:17;96874.84;;;12.00;48.78
33185;BME280;19550;42.872;25.494;2023-02-20T10:10:44;96887.84;;;11.68;50.91
33185;BME280;19550;42.872;25.494;2023-02-20T10:13:27;96882.81;;;11.92;50.76
33185;BME280;19550;42.872;25.494;2023-02-20T10:16:01;96882.78;;;12.15;50.54
33185;BME280;19550;42.872;25.494;2023-02-20T10:18:34;96876.13;;;12.24;50.40
33185;BME280;19550;42.872;25.494;2023-02-20T10:21:07;96876.63;;;12.26;50.57
33185;BME280;19550;42.872;25.494;2023-02-20T10:23:44;96875.84;;;12.34;50.95
33185;BME280;19550;42.872;25.494;2023-02-20T10:26:17;96884.34;;;12.78;50.40
33185;BME280;19550;42.872;25.494;2023-02-20T10:28:46;96889.66;;;13.05;50.64
33185;BME280;19550;42.872;25.494;2023-02-20T10:31:24;96872.25;;;12.82;50.43
33185;BME280;19550;42.872;25.494;2023-02-20T10:33:58;96872.19;;;12.65;51.08
33185;BME280;19550;42.872;25.494;2023-02-20T10:36:29;96872.97;;;12.48;51.14
33185;BME280;19550;42.872;25.494;2023-02-20T10:39:04;96869.88;;;12.58;51.70
33185;BME280;19550;42.872;25.494;2023-02-20T10:41:36;96850.09;;;12.60;52.26
33185;BME280;19550;42.872;25.494;2023-02-20T10:44:12;96861.84;;;12.57;51.73
33185;BME280;19550;42.872;25.494;2023-02-20T10:46:50;96847.84;;;12.79;53.65
33185;BME280;19550;42.872;25.494;2023-02-20T10:49:25;96844.47;;;12.99;51.50
33185;BME280;19550;42.872;25.494;2023-02-20T10:51:56;96859.22;;;13.17;52.58
33185;BME280;19550;42.872;25.494;2023-02-20T10:54:30;96859.16;;;12.74;52.71
33185;BME280;19550;42.872;25.494;2023-02-20T10:57:04;96863.69;;;12.61;51.59
33185;BME280;19550;42.872;25.494;2023-02-20T10:59:40;96846.72;;;12.32;52.44
33185;BME280;19550;42.872;25.494;2023-02-20T11:02:16;96860.38;;;12.51;52.29
33185;BME280;19550;42.872;25.494;2023-02-20T11:04:50;96850.75;;;12.65;51.27
33185;BME280;19550;42.872;25.494;2023-02-20T11:07:18;96853.78;;;12.95;51.26
33185;BME280;19550;42.872;25.494;2023-02-20T11:09:46;96855.75;;;12.94;50.88
33185;BME280;19550;42.872;25.494;2023-02-20T11:12:21;96868.19;;;13.05;49.27
33185;BME280;19550;42.872;25.494;2023-02-20T11:14:52;96871.16;;;13.00;49.11
33185;BME280;19550;42.872;25.494;2023-02-20T11:17:24;96864.97;;;13.21;48.74
33185;BME280;19550;42.872;25.494;2023-02-20T11:19:53;96874.91;;;13.04;49.20
33185;BME280;19550;42.872;25.494;2023-02-20T11:22:39;96865.22;;;12.85;48.09
33185;BME280;19550;42.872;25.494;2023-02-20T11:25:16;96877.34;;;12.89;49.37
33185;BME280;19550;42.872;25.494;2023-02-20T11:27:45;96874.47;;;13.20;48.55
33185;BME280;19550;42.872;25.494;2023-02-20T11:30:33;96878.75;;;13.26;47.83
33185;BME280;19550;42.872;25.494;2023-02-20T11:33:04;96875.25;;;13.11;48.23
33185;BME280;19550;42.872;25.494;2023-02-20T11:35:37;96878.56;;;13.13;48.95
33185;BME280;19550;42.872;25.494;2023-02-20T11:38:27;96885.88;;;13.01;48.00
33185;BME280;19550;42.872;25.494;2023-02-20T11:41:24;96870.56;;;13.38;49.54
33185;BME280;19550;42.872;25.494;2023-02-20T11:44:23;96867.44;;;13.57;47.84
33185;BME280;19550;42.872;25.494;2023-02-20T11:47:25;96885.78;;;13.58;46.54
33185;BME280;19550;42.872;25.494;2023-02-20T11:52:57;96886.38;;;13.11;46.18
33185;BME280;19550;42.872;25.494;2023-02-20T11:55:26;96876.63;;;13.23;46.10
33185;BME280;19550;42.872;25.494;2023-02-20T11:57:54;96881.03;;;13.24;45.16
33185;BME280;19550;42.872;25.494;2023-02-20T12:00:23;96881.94;;;13.10;46.10
33185;BME280;19550;42.872;25.494;2023-02-20T12:02:54;96873.91;;;12.92;45.77
33185;BME280;19550;42.872;25.494;2023-02-20T12:05:29;96868.03;;;12.93;46.34
33185;BME280;19550;42.872;25.494;2023-02-20T12:08:22;96878.75;;;13.51;44.90
33185;BME280;19550;42.872;25.494;2023-02-20T12:10:55;96866.63;;;13.39;43.63
33185;BME280;19550;42.872;25.494;2023-02-20T12:13:24;96863.69;;;13.52;43.72
33185;BME280;19550;42.872;25.494;2023-02-20T12:15:56;96869.41;;;13.82;43.51
33185;BME280;19550;42.872;25.494;2023-02-20T12:18:40;96866.63;;;13.82;43.36
33185;BME280;19550;42.872;25.494;2023-02-20T12:21:29;96864.16;;;13.72;44.07
33185;BME280;19550;42.872;25.494;2023-02-20T12:24:15;96856.78;;;13.59;44.02
33185;BME280;19550;42.872;25.494;2023-02-20T12:26:53;96863.03;;;13.21;43.27
33185;BME280;19550;42.872;25.494;2023-02-20T12:29:35;96877.44;;;13.32;43.23
33185;BME280;19550;42.872;25.494;2023-02-20T12:32:19;96868.91;;;13.37;43.19
33185;BME280;19550;42.872;25.494;2023-02-20T12:34:57;96880.41;;;12.79;43.24
33185;BME280;19550;42.872;25.494;2023-02-20T12:37:35;96884.53;;;12.81;42.77
33185;BME280;19550;42.872;25.494;2023-02-20T12:40:30;96886.13;;;12.73;42.48
33185;BME280;19550;42.872;25.494;2023-02-20T12:43:08;96877.13;;;12.77;43.38
33185;BME280;19550;42.872;25.494;2023-02-20T12:45:41;96871.78;;;12.97;42.74
33185;BME280;19550;42.872;25.494;2023-02-20T12:48:24;96864.47;;;13.19;42.39
33185;BME280;19550;42.872;25.494;2023-02-20T12:51:06;96880.03;;;13.20;42.85
33185;BME280;19550;42.872;25.494;2023-02-20T12:53:47;96868.19;;;12.97;43.19
33185;BME280;19550;42.872;25.494;2023-02-20T12:56:26;96876.81;;;12.69;43.94
33185;BME280;19550;42.872;25.494;2023-02-20T12:59:00;96869.75;;;12.72;44.09
33185;BME280;19550;42.872;25.494;2023-02-20T13:01:33;96864.41;;;12.36;44.20
33185;BME280;19550;42.872;25.494;2023-02-20T13:04:04;96858.41;;;12.12;45.30
33185;BME280;19550;42.872;25.494;2023-02-20T13:06:35;96870.50;;;11.63;45.94
33185;BME280;19550;42.872;25.494;2023-02-20T13:09:15;96873.59;;;11.61;46.87
33185;BME280;19550;42.872;25.494;2023-02-20T13:11:47;96864.94;;;11.63;47.05
33185;BME280;19550;42.872;25.494;2023-02-20T13:14:27;96872.91;;;11.55;46.19
33185;BME280;19550;42.872;25.494;2023-02-20T13:17:05;96879.00;;;11.44;47.38
33185;BME280;19550;42.872;25.494;2023-02-20T13:19:37;96884.53;;;11.22;47.33
33185;BME280;19550;42.872;25.494;2023-02-20T13:22:05;96870.66;;;11.22;47.86
33185;BME280;19550;42.872;25.494;2023-02-20T13:24:33;96870.34;;;11.23;47.85